createdAt,value
2018-07-22T00:02:21.819Z,20.20
2018-07-22T00:04:52.281Z,17.93
2018-07-22T00:07:22.827Z,19.27
2018-07-22T00:09:53.206Z,20.93
2018-07-22T00:12:23.940Z,20.93
2018-07-22T00:14:54.069Z,17.53
2018-07-22T00:17:24.589Z,19.00
2018-07-22T00:19:55.288Z,20.30
2018-07-22T00:22:26.066Z,21.30
2018-07-22T00:24:56.945Z,22.80
2018-07-22T00:27:27.450Z,18.87
2018-07-22T00:29:58.218Z,16.73
2018-07-22T00:32:28.582Z,19.27
2018-07-22T00:34:58.957Z,16.97
2018-07-22T00:37:29.804Z,18.07
2018-07-22T00:40:00.397Z,19.07
2018-07-22T00:42:31.026Z,21.03
2018-07-22T00:45:01.806Z,26.67
2018-07-22T00:47:32.434Z,21.77
2018-07-22T00:50:02.971Z,18.40
2018-07-22T00:52:33.293Z,22.50
2018-07-22T00:55:04.752Z,24.63
2018-07-22T00:57:35.181Z,20.20
2018-07-22T01:00:05.916Z,22.33
2018-07-22T01:02:37.331Z,23.73
2018-07-22T01:05:07.903Z,20.10
2018-07-22T01:07:38.313Z,21.87
2018-07-22T01:10:08.888Z,20.93
2018-07-22T01:12:39.880Z,20.83
2018-07-22T01:15:10.686Z,23.63
2018-07-22T01:17:41.013Z,21.43
2018-07-22T01:20:11.354Z,21.20
2018-07-22T01:22:42.138Z,17.80
2018-07-22T01:25:12.036Z,24.00
2018-07-22T01:27:42.236Z,21.20
2018-07-22T01:30:12.666Z,22.87
2018-07-22T01:32:43.302Z,24.97
2018-07-22T01:35:13.891Z,29.87
2018-07-22T01:37:44.671Z,20.40
2018-07-22T01:40:15.148Z,22.63
2018-07-22T01:42:45.558Z,27.13
2018-07-22T01:45:15.967Z,23.40
2018-07-22T01:47:46.992Z,25.90
2018-07-22T01:50:17.437Z,23.17
2018-07-22T01:52:48.227Z,25.70
2018-07-22T01:55:19.015Z,24.87
2018-07-22T01:57:49.470Z,21.47
2018-07-22T02:00:19.857Z,24.97
2018-07-22T02:02:50.430Z,24.90
2018-07-22T02:05:21.146Z,24.30
2018-07-22T02:07:51.414Z,22.30
2018-07-22T02:10:21.918Z,27.10
2018-07-22T02:12:52.866Z,24.63
2018-07-22T02:15:23.507Z,25.73
2018-07-22T02:17:53.595Z,29.73
2018-07-22T02:20:26.490Z,29.90
2018-07-22T02:22:56.943Z,24.33
2018-07-22T02:25:27.382Z,26.40
2018-07-22T02:27:57.918Z,25.07
2018-07-22T02:30:28.699Z,30.10
2018-07-22T02:32:59.071Z,30.83
2018-07-22T02:35:29.658Z,28.27
2018-07-22T02:38:00.256Z,27.90
2018-07-22T02:40:31.019Z,25.30
2018-07-22T02:43:01.377Z,26.87
2018-07-22T02:45:31.695Z,26.07
2018-07-22T02:48:02.037Z,29.27
2018-07-22T02:50:32.482Z,32.80
2018-07-22T02:53:02.991Z,29.40
2018-07-22T02:55:33.835Z,28.27
2018-07-22T02:58:04.370Z,28.97
2018-07-22T03:00:34.840Z,29.47
2018-07-22T03:03:05.432Z,28.50
2018-07-22T03:05:35.761Z,29.03
2018-07-22T03:08:06.251Z,31.30
2018-07-22T03:10:36.603Z,31.37
2018-07-22T03:13:07.636Z,41.03
2018-07-22T03:15:38.675Z,26.57
2018-07-22T03:18:08.922Z,30.50
2018-07-22T03:20:39.333Z,38.53
2018-07-22T03:23:09.833Z,31.60
2018-07-22T03:25:40.222Z,32.03
2018-07-22T03:28:10.945Z,35.57
2018-07-22T03:30:41.419Z,34.53
2018-07-22T03:33:11.835Z,35.33
2018-07-22T03:35:42.138Z,32.70
2018-07-22T03:38:13.998Z,32.67
2018-07-22T03:40:44.037Z,36.20
2018-07-22T03:43:14.263Z,34.67
2018-07-22T03:45:44.759Z,35.10
2018-07-22T03:48:16.652Z,29.43
2018-07-22T03:50:47.076Z,36.50
2018-07-22T03:53:17.369Z,34.00
2018-07-22T03:55:47.698Z,29.60
2018-07-22T03:58:18.177Z,30.73
2018-07-22T04:00:48.720Z,31.97
2018-07-22T04:03:19.642Z,37.67
2018-07-22T04:05:49.966Z,36.17
2018-07-22T04:08:20.516Z,37.33
2018-07-22T04:10:50.915Z,30.00
2018-07-22T04:13:21.684Z,36.20
2018-07-22T04:15:52.119Z,33.87
2018-07-22T04:18:22.672Z,34.93
2018-07-22T04:20:53.151Z,33.97
2018-07-22T04:23:23.549Z,37.43
2018-07-22T04:25:53.880Z,34.80
2018-07-22T04:28:24.686Z,34.23
2018-07-22T04:30:54.981Z,32.67
2018-07-22T04:33:25.542Z,33.97
2018-07-22T04:35:55.650Z,35.83
2018-07-22T04:38:26.389Z,36.03
2018-07-22T04:40:57.223Z,34.50
2018-07-22T04:43:27.701Z,32.77
2018-07-22T04:45:58.171Z,33.00
2018-07-22T04:48:28.682Z,34.43
2018-07-22T04:50:59.058Z,32.63
2018-07-22T04:53:29.590Z,34.20
2018-07-22T04:56:00.014Z,33.43
2018-07-22T04:58:30.782Z,34.27
2018-07-22T05:01:01.091Z,32.17
2018-07-22T05:03:32.011Z,29.70
2018-07-22T05:06:02.447Z,30.97
2018-07-22T05:08:32.339Z,32.17
2018-07-22T05:11:03.060Z,31.87
2018-07-22T05:13:33.639Z,41.97
2018-07-22T05:16:05.289Z,34.00
2018-07-22T05:18:36.050Z,33.67
2018-07-22T05:21:06.710Z,35.23
2018-07-22T05:23:37.129Z,36.53
2018-07-22T05:26:07.506Z,28.67
2018-07-22T05:28:38.174Z,35.63
2018-07-22T05:31:08.773Z,36.87
2018-07-22T05:33:39.252Z,34.03
2018-07-22T05:36:09.728Z,36.83
2018-07-22T05:38:40.092Z,35.07
2018-07-22T05:41:10.630Z,35.57
2018-07-22T05:43:41.383Z,36.47
2018-07-22T05:46:11.706Z,37.20
2018-07-22T05:48:41.989Z,33.33
2018-07-22T05:51:12.575Z,31.70
2018-07-22T05:53:44.565Z,31.80
2018-07-22T05:56:15.015Z,27.63
2018-07-22T05:58:45.451Z,31.93
2018-07-22T06:01:16.050Z,28.33
2018-07-22T06:03:47.939Z,27.53
2018-07-22T06:06:17.887Z,30.40
2018-07-22T06:08:48.083Z,36.50
2018-07-22T06:11:18.765Z,33.73
2018-07-22T06:13:49.176Z,32.13
2018-07-22T06:16:20.077Z,31.37
2018-07-22T06:18:50.956Z,31.50
2018-07-22T06:21:21.664Z,34.10
2018-07-22T06:23:52.263Z,31.70
2018-07-22T06:26:22.962Z,28.20
2018-07-22T06:28:53.953Z,33.87
2018-07-22T06:31:24.787Z,29.30
2018-07-22T06:33:55.229Z,28.70
2018-07-22T06:36:25.862Z,25.80
2018-07-22T06:38:56.799Z,25.33
2018-07-22T06:41:27.670Z,23.97
2018-07-22T06:43:58.107Z,29.57
2018-07-22T06:46:28.738Z,26.17
2018-07-22T06:48:59.402Z,30.40
2018-07-22T06:51:30.043Z,26.00
2018-07-22T06:54:01.003Z,24.93
2018-07-22T06:56:32.058Z,29.07
2018-07-22T06:59:02.502Z,23.80
2018-07-22T07:01:32.808Z,21.20
2018-07-22T07:04:03.693Z,21.03
2018-07-22T07:06:34.261Z,20.60
2018-07-22T07:09:07.523Z,18.03
2018-07-22T07:11:37.901Z,16.87
2018-07-22T07:14:09.186Z,21.93
2018-07-22T07:16:39.861Z,18.00
2018-07-22T07:19:10.439Z,19.23
2018-07-22T07:21:41.050Z,14.13
2018-07-22T07:24:11.438Z,17.60
2018-07-22T07:26:41.970Z,15.97
2018-07-22T07:29:12.423Z,15.80
2018-07-22T07:31:43.909Z,15.37
2018-07-22T07:34:14.551Z,13.93
2018-07-22T07:36:44.857Z,17.63
2018-07-22T07:39:15.402Z,17.03
2018-07-22T07:41:46.267Z,11.40
2018-07-22T07:44:16.857Z,13.67
2018-07-22T07:46:47.257Z,13.83
2018-07-22T07:49:17.807Z,16.37
2018-07-22T07:51:50.003Z,15.90
2018-07-22T07:54:20.645Z,12.23
2018-07-22T07:56:51.324Z,13.70
2018-07-22T07:59:21.672Z,18.03
2018-07-22T08:01:51.645Z,11.10
2018-07-22T08:04:22.487Z,13.47
2018-07-22T08:06:53.450Z,13.23
2018-07-22T08:09:24.331Z,12.50
2018-07-22T08:11:54.978Z,11.60
2018-07-22T08:14:25.585Z,11.00
2018-07-22T08:16:56.634Z,12.07
2018-07-22T08:19:26.794Z,11.27
2018-07-22T08:21:57.637Z,10.70
2018-07-22T08:24:28.294Z,13.50
2018-07-22T08:27:00.134Z,9.27
2018-07-22T08:29:31.819Z,9.60
2018-07-22T08:32:03.300Z,11.63
2018-07-22T08:34:33.982Z,7.03
2018-07-22T08:37:04.651Z,9.80
2018-07-22T08:39:35.134Z,7.93
2018-07-22T08:42:06.068Z,7.50
2018-07-22T08:44:37.074Z,7.00
2018-07-22T08:47:07.650Z,9.20
2018-07-22T08:49:38.267Z,8.50
2018-07-22T08:52:09.110Z,10.33
2018-07-22T08:54:40.216Z,7.30
2018-07-22T08:57:10.678Z,7.17
2018-07-22T08:59:41.321Z,6.00
2018-07-22T09:02:11.918Z,6.97
2018-07-22T09:04:42.834Z,7.70
2018-07-22T09:07:13.410Z,7.47
2018-07-22T09:09:43.963Z,6.93
2018-07-22T09:12:14.406Z,8.67
2018-07-22T09:14:45.055Z,9.90
2018-07-22T09:17:15.421Z,6.30
2018-07-22T09:19:45.985Z,7.77
2018-07-22T09:22:16.418Z,11.23
2018-07-22T09:24:46.829Z,8.80
2018-07-22T09:27:17.342Z,9.60
2018-07-22T09:29:48.092Z,9.27
2018-07-22T09:32:18.461Z,8.10
2018-07-22T09:34:48.950Z,5.50
2018-07-22T09:37:19.879Z,5.70
2018-07-22T09:39:50.612Z,7.93
2018-07-22T09:42:21.010Z,12.13
2018-07-22T09:44:51.379Z,8.60
2018-07-22T09:47:22.203Z,10.87
2018-07-22T09:49:52.910Z,8.10
2018-07-22T09:52:23.343Z,5.40
2018-07-22T09:54:54.095Z,7.83
2018-07-22T09:57:24.617Z,5.47
2018-07-22T09:59:55.335Z,9.93
2018-07-22T10:02:25.646Z,6.20
2018-07-22T10:04:56.593Z,6.03
2018-07-22T10:07:27.138Z,6.17
2018-07-22T10:09:57.668Z,7.17
2018-07-22T10:12:28.566Z,5.43
2018-07-22T10:14:59.101Z,6.63
2018-07-22T10:17:29.667Z,7.73
2018-07-22T10:20:00.114Z,9.20
2018-07-22T10:22:30.927Z,4.90
2018-07-22T10:25:01.471Z,5.00
2018-07-22T10:27:31.937Z,6.20
2018-07-22T10:30:02.779Z,6.53
2018-07-22T10:32:34.430Z,7.10
2018-07-22T10:35:05.229Z,6.97
2018-07-22T10:37:36.184Z,5.07
2018-07-22T10:40:06.666Z,7.20
2018-07-22T10:42:37.419Z,5.33
2018-07-22T10:45:07.960Z,7.17
2018-07-22T10:47:39.234Z,4.90
2018-07-22T10:50:10.103Z,5.23
2018-07-22T10:52:40.492Z,5.87
2018-07-22T10:55:10.882Z,5.00
2018-07-22T10:57:41.707Z,5.03
2018-07-22T11:00:12.410Z,4.93
2018-07-22T11:02:42.897Z,5.00
2018-07-22T11:05:13.463Z,4.70
2018-07-22T11:07:44.086Z,4.73
2018-07-22T11:10:14.528Z,4.93
2018-07-22T11:12:45.361Z,4.70
2018-07-22T11:15:17.188Z,4.70
2018-07-22T11:17:47.531Z,5.30
2018-07-22T11:20:18.064Z,7.13
2018-07-22T11:22:48.755Z,7.57
2018-07-22T11:25:19.262Z,5.40
2018-07-22T11:27:49.781Z,4.93
2018-07-22T11:30:20.494Z,5.33
2018-07-22T11:32:50.980Z,5.93
2018-07-22T11:35:21.227Z,5.80
2018-07-22T11:37:54.023Z,5.20
2018-07-22T11:40:24.370Z,4.60
2018-07-22T11:42:54.628Z,6.20
2018-07-22T11:45:24.936Z,7.20
2018-07-22T11:47:55.317Z,5.50
2018-07-22T11:50:25.930Z,11.70
2018-07-22T11:52:56.462Z,6.60
2018-07-22T11:55:26.871Z,6.37
2018-07-22T11:57:57.402Z,4.63
2018-07-22T12:00:28.499Z,5.17
2018-07-22T12:02:59.246Z,5.10
2018-07-22T12:05:30.018Z,5.30
2018-07-22T12:08:00.608Z,7.00
2018-07-22T12:10:30.988Z,5.13
2018-07-22T12:13:01.669Z,5.07
2018-07-22T12:15:32.497Z,5.13
2018-07-22T12:18:03.083Z,5.80
2018-07-22T12:20:33.647Z,6.43
2018-07-22T12:23:04.710Z,5.40
2018-07-22T12:25:35.575Z,5.60
2018-07-22T12:28:06.050Z,5.10
2018-07-22T12:30:36.919Z,5.40
2018-07-22T12:33:09.014Z,6.33
2018-07-22T12:35:39.476Z,5.57
2018-07-22T12:38:09.847Z,5.13
2018-07-22T12:40:40.625Z,4.83
2018-07-22T12:43:16.486Z,5.50
2018-07-22T12:45:47.198Z,5.07
2018-07-22T12:48:17.795Z,5.07
2018-07-22T12:50:48.768Z,5.20
2018-07-22T12:53:19.366Z,5.93
2018-07-22T12:55:49.834Z,4.83
2018-07-22T12:58:20.487Z,5.23
2018-07-22T13:00:50.953Z,6.37
2018-07-22T13:03:22.133Z,5.90
2018-07-22T13:05:53.030Z,6.33
2018-07-22T13:08:23.664Z,6.10
2018-07-22T13:10:54.668Z,5.40
2018-07-22T13:13:25.209Z,5.80
2018-07-22T13:15:57.309Z,8.67
2018-07-22T13:18:27.830Z,6.77
2018-07-22T13:20:58.418Z,5.50
2018-07-22T13:23:29.100Z,6.00
2018-07-22T13:25:59.862Z,6.80
2018-07-22T13:28:30.434Z,5.20
2018-07-22T13:31:00.834Z,7.13
2018-07-22T13:33:31.889Z,5.70
2018-07-22T13:36:02.629Z,5.50
2018-07-22T13:38:33.236Z,5.83
2018-07-22T13:41:03.507Z,5.83
2018-07-22T13:43:35.371Z,9.37
2018-07-22T13:46:06.077Z,5.60
2018-07-22T13:48:36.499Z,5.70
2018-07-22T13:51:07.347Z,5.97
2018-07-22T13:53:38.007Z,5.43
2018-07-22T13:56:08.404Z,7.00
2018-07-22T13:58:38.900Z,7.07
2018-07-22T14:01:09.237Z,5.80
2018-07-22T14:05:09.372Z,6.07
2018-07-22T14:07:40.035Z,6.83
2018-07-22T14:10:10.430Z,6.23
2018-07-22T14:12:41.035Z,6.30
2018-07-22T14:15:11.507Z,6.70
2018-07-22T14:17:42.249Z,5.20
2018-07-22T14:20:12.834Z,6.33
2018-07-22T14:22:43.410Z,6.60
2018-07-22T14:25:13.678Z,10.60
2018-07-22T14:27:44.366Z,5.60
2018-07-22T14:30:14.988Z,5.83
2018-07-22T14:32:45.413Z,6.17
2018-07-22T14:35:15.657Z,5.77
2018-07-22T14:37:46.187Z,7.00
2018-07-22T14:40:16.495Z,5.27
2018-07-22T14:42:48.467Z,5.60
2018-07-22T14:45:19.307Z,6.03
2018-07-22T14:47:50.179Z,5.60
2018-07-22T14:50:20.761Z,5.27
2018-07-22T14:52:51.122Z,4.30
2018-07-22T14:55:21.493Z,4.97
2018-07-22T14:57:51.874Z,5.23
2018-07-22T15:00:22.698Z,5.20
2018-07-22T15:02:53.295Z,5.00
2018-07-22T15:05:23.538Z,5.13
2018-07-22T15:07:55.322Z,5.00
2018-07-22T15:10:26.037Z,5.23
2018-07-22T15:12:56.547Z,5.30
2018-07-22T15:15:27.111Z,5.63
2018-07-22T15:17:57.935Z,4.67
2018-07-22T15:20:28.475Z,5.97
2018-07-22T15:22:59.226Z,5.07
2018-07-22T15:25:30.171Z,5.17
2018-07-22T15:28:00.766Z,4.90
2018-07-22T15:30:31.268Z,4.83
2018-07-22T15:33:02.294Z,7.10
2018-07-22T15:35:33.182Z,6.40
2018-07-22T15:38:03.782Z,5.50
2018-07-22T15:40:34.449Z,6.23
2018-07-22T15:43:04.981Z,5.10
2018-07-22T15:45:35.983Z,5.37
2018-07-22T15:48:06.785Z,4.83
2018-07-22T15:50:37.200Z,5.10
2018-07-22T15:53:07.762Z,4.50
2018-07-22T15:55:38.168Z,9.47
2018-07-22T15:58:08.321Z,5.50
2018-07-22T16:00:39.406Z,4.77
2018-07-22T16:03:09.686Z,5.27
2018-07-22T16:05:40.012Z,5.23
2018-07-22T16:08:10.711Z,5.93
2018-07-22T16:10:41.071Z,7.07
2018-07-22T16:13:11.648Z,5.37
2018-07-22T16:15:41.967Z,7.60
2018-07-22T16:18:12.250Z,5.37
2018-07-22T16:20:42.696Z,6.80
2018-07-22T16:23:14.056Z,9.10
2018-07-22T16:25:48.037Z,8.40
2018-07-22T16:28:18.240Z,5.53
2018-07-22T16:30:49.207Z,7.83
2018-07-22T16:33:19.140Z,8.90
2018-07-22T16:35:49.466Z,7.13
2018-07-22T16:38:20.656Z,5.87
2018-07-22T16:40:50.935Z,5.90
2018-07-22T16:43:21.461Z,5.57
2018-07-22T16:45:52.221Z,5.60
2018-07-22T16:48:22.768Z,5.70
2018-07-22T16:50:53.463Z,5.37
2018-07-22T16:53:24.151Z,5.20
2018-07-22T16:55:54.484Z,5.90
2018-07-22T16:58:25.229Z,6.17
2018-07-22T17:00:55.783Z,5.30
2018-07-22T17:03:26.886Z,5.77
2018-07-22T17:05:57.609Z,5.60
2018-07-22T17:08:28.242Z,5.20
2018-07-22T17:10:58.804Z,5.63
2018-07-22T17:13:29.614Z,7.23
2018-07-22T17:16:00.262Z,5.47
2018-07-22T17:18:30.710Z,5.80
2018-07-22T17:21:01.970Z,5.93
2018-07-22T17:23:32.687Z,6.37
2018-07-22T17:26:03.071Z,7.20
2018-07-22T17:28:33.406Z,5.67
2018-07-22T17:31:04.426Z,7.40
2018-07-22T17:33:34.903Z,6.97
2018-07-22T17:36:05.443Z,8.27
2018-07-22T17:38:36.242Z,10.43
2018-07-22T17:41:07.162Z,6.87
2018-07-22T17:43:37.491Z,8.50
2018-07-22T17:46:08.416Z,5.83
2018-07-22T17:48:39.053Z,7.07
2018-07-22T17:51:09.710Z,7.50
2018-07-22T17:53:40.584Z,5.97
2018-07-22T17:56:11.199Z,6.80
2018-07-22T17:58:41.755Z,5.37
2018-07-22T18:01:12.395Z,6.10
2018-07-22T18:03:43.251Z,6.83
2018-07-22T18:06:13.778Z,7.20
2018-07-22T18:08:45.195Z,6.37
2018-07-22T18:11:15.826Z,7.60
2018-07-22T18:13:46.730Z,11.87
2018-07-22T18:16:17.647Z,6.47
2018-07-22T18:18:48.230Z,8.37
2018-07-22T18:21:18.810Z,6.83
2018-07-22T18:23:49.338Z,6.40
2018-07-22T18:26:19.614Z,6.20
2018-07-22T18:28:50.138Z,8.30
2018-07-22T18:31:22.027Z,6.40
2018-07-22T18:33:52.443Z,6.63
2018-07-22T18:36:22.796Z,6.50
2018-07-22T18:38:53.332Z,8.77
2018-07-22T18:41:23.781Z,6.70
2018-07-22T18:43:54.407Z,5.97
2018-07-22T18:46:24.679Z,7.30
2018-07-22T18:48:55.491Z,4.90
2018-07-22T18:51:26.057Z,4.50
2018-07-22T18:53:56.539Z,5.00
2018-07-22T18:56:26.958Z,5.20
2018-07-22T18:58:58.151Z,5.07
2018-07-22T19:01:28.458Z,5.43
2018-07-22T19:03:58.974Z,6.33
2018-07-22T19:06:29.439Z,5.07
2018-07-22T19:09:00.027Z,4.67
2018-07-22T19:11:30.804Z,7.43
2018-07-22T19:14:01.550Z,5.67
2018-07-22T19:16:32.221Z,6.10
2018-07-22T19:19:02.903Z,5.00
2018-07-22T19:21:33.958Z,7.67
2018-07-22T19:24:04.855Z,5.00
2018-07-22T19:26:35.647Z,5.10
2018-07-22T19:29:06.209Z,5.63
2018-07-22T19:31:36.586Z,6.03
2018-07-22T19:34:07.409Z,10.83
2018-07-22T19:36:38.007Z,4.70
2018-07-22T19:39:09.741Z,4.77
2018-07-22T19:41:40.218Z,10.37
2018-07-22T19:44:11.162Z,8.00
2018-07-22T19:46:42.256Z,4.70
2018-07-22T19:49:12.631Z,5.77
2018-07-22T19:51:43.221Z,5.93
2018-07-22T19:54:13.990Z,6.80
2018-07-22T19:56:44.678Z,5.10
2018-07-22T19:59:15.466Z,5.60
2018-07-22T20:01:46.258Z,4.80
2018-07-22T20:04:16.992Z,7.23
2018-07-22T20:06:47.783Z,6.20
2018-07-22T20:09:18.654Z,6.93
2018-07-22T20:11:49.219Z,7.83
2018-07-22T20:14:19.992Z,6.50
2018-07-22T20:16:50.763Z,6.30
2018-07-22T20:19:21.158Z,6.77
2018-07-22T20:21:51.635Z,10.70
2018-07-22T20:24:22.473Z,6.20
2018-07-22T20:26:53.178Z,7.30
2018-07-22T20:29:24.023Z,7.27
2018-07-22T20:31:55.028Z,7.87
2018-07-22T20:34:25.827Z,6.50
2018-07-22T20:36:56.837Z,7.53
2018-07-22T20:39:27.306Z,6.23
2018-07-22T20:41:57.706Z,5.20
2018-07-22T20:44:28.206Z,5.67
2018-07-22T20:46:59.214Z,6.37
2018-07-22T20:49:29.909Z,5.63
2018-07-22T20:52:00.274Z,4.97
2018-07-22T20:54:30.649Z,5.00
2018-07-22T20:57:01.348Z,5.10
2018-07-22T20:59:31.791Z,6.17
2018-07-22T21:02:02.669Z,7.67
2018-07-22T21:04:33.452Z,5.23
2018-07-22T21:07:03.958Z,5.20
2018-07-22T21:09:35.066Z,7.40
2018-07-22T21:12:41.920Z,6.43
2018-07-22T21:15:12.992Z,5.13
2018-07-22T21:17:45.228Z,5.27
2018-07-22T21:20:16.428Z,4.73
2018-07-22T21:22:47.130Z,5.23
2018-07-22T21:25:18.692Z,5.93
2018-07-22T21:27:49.298Z,18.63
2018-07-22T21:30:19.679Z,5.93
2018-07-22T21:32:50.382Z,6.57
2018-07-22T21:35:20.909Z,6.83
2018-07-22T21:37:51.469Z,10.03
2018-07-22T21:40:22.076Z,6.97
2018-07-22T21:42:52.999Z,12.40
2018-07-22T21:45:23.541Z,8.97
2018-07-22T21:47:54.403Z,9.13
2018-07-22T21:50:25.120Z,9.43
2018-07-22T21:52:55.732Z,7.90
2018-07-22T21:55:26.709Z,7.93
2018-07-22T21:57:57.404Z,33.87
2018-07-22T22:00:33.512Z,10.23
2018-07-22T22:03:04.926Z,9.63
2018-07-22T22:05:35.079Z,7.90
2018-07-22T22:08:05.458Z,7.70
2018-07-22T22:10:36.095Z,14.10
2018-07-22T22:13:06.778Z,9.10
2018-07-22T22:15:37.169Z,8.70
2018-07-22T22:18:07.689Z,8.37
2018-07-22T22:20:38.048Z,9.10
2018-07-22T22:23:08.490Z,7.87
2018-07-22T22:25:40.387Z,8.27
2018-07-22T22:28:11.118Z,9.53
2018-07-22T22:30:41.607Z,9.50
2018-07-22T22:33:12.071Z,10.57
2018-07-22T22:35:42.845Z,7.60
2018-07-22T22:38:13.331Z,8.50
2018-07-22T22:40:43.810Z,7.33
2018-07-22T22:43:14.229Z,11.50
2018-07-22T22:45:44.771Z,9.73
2018-07-22T22:48:15.352Z,10.40
2018-07-22T22:50:46.358Z,8.30
2018-07-22T22:53:16.879Z,8.10
2018-07-22T22:55:47.545Z,8.70
2018-07-22T22:58:28.927Z,8.17
2018-07-22T23:00:59.396Z,8.97
2018-07-22T23:03:29.848Z,7.90
2018-07-22T23:06:00.538Z,7.00
2018-07-22T23:08:31.590Z,9.90
2018-07-22T23:11:01.854Z,8.53
2018-07-22T23:13:32.342Z,8.50
2018-07-22T23:16:02.750Z,7.27
2018-07-22T23:18:33.461Z,7.70
2018-07-22T23:21:03.858Z,6.17
2018-07-22T23:23:34.501Z,6.93
2018-07-22T23:26:05.525Z,7.13
2018-07-22T23:28:35.850Z,7.60
2018-07-22T23:31:05.953Z,9.40
2018-07-22T23:33:36.302Z,8.93
2018-07-22T23:36:08.230Z,9.10
2018-07-22T23:38:38.586Z,8.90
2018-07-22T23:41:08.938Z,7.50
2018-07-22T23:43:39.488Z,8.03
2018-07-22T23:46:10.386Z,10.07
2018-07-22T23:48:40.706Z,7.43
2018-07-22T23:51:10.926Z,7.80
2018-07-22T23:53:41.138Z,8.83
2018-07-22T23:56:11.688Z,8.27
2018-07-22T23:58:42.270Z,7.43
